Time;durP1;ratioP1;P1;durP2;ratioP2;P2;SDS_P1;SDS_P2;PMS_P1;PMS_P2;Temp;Humidity;BMP_temperature;BMP_pressure;BME280_temperature;BME280_humidity;BME280_pressure;Samples;Min_cycle;Max_cycle;Signal;HPM_P1;HPM_P2
2022/11/24 00:01:21;;;;;;;20.40;8.52;;;;;;;;;;5091743;28;20480;-64
2022/11/24 00:03:53;;;;;;;27.20;8.93;;;;;;;;;;5073024;28;20444;-64
2022/11/24 00:06:20;;;;;;;21.20;8.35;;;;;;;;;;5071054;28;20044;-64
2022/11/24 00:08:46;;;;;;;21.48;8.07;;;;;;;;;;5081790;28;20119;-64
2022/11/24 00:11:14;;;;;;;16.42;7.80;;;;;;;;;;5092009;28;20165;-64
2022/11/24 00:13:40;;;;;;;20.42;7.88;;;;;;;;;;5095520;28;20047;-64
2022/11/24 00:16:06;;;;;;;21.67;7.32;;;;;;;;;;5095544;28;20056;-64
2022/11/24 00:18:32;;;;;;;26.08;6.90;;;;;;;;;;5095583;28;20127;-64
2022/11/24 00:20:58;;;;;;;24.83;6.90;;;;;;;;;;5094913;28;20059;-64
2022/11/24 00:23:25;;;;;;;29.65;7.10;;;;;;;;;;5095717;28;20069;-64
2022/11/24 00:25:51;;;;;;;20.15;6.90;;;;;;;;;;5095516;28;20043;-64
2022/11/24 00:28:17;;;;;;;24.02;6.90;;;;;;;;;;5095206;28;20046;-64
2022/11/24 00:30:43;;;;;;;22.05;6.63;;;;;;;;;;5095426;28;20040;-64
2022/11/24 00:33:10;;;;;;;18.08;6.45;;;;;;;;;;5095563;28;20092;-64
2022/11/24 00:35:36;;;;;;;22.30;6.50;;;;;;;;;;5095185;28;20051;-64
2022/11/24 00:38:02;;;;;;;24.38;7.55;;;;;;;;;;5095536;28;20044;-64
2022/11/24 00:40:28;;;;;;;19.50;7.15;;;;;;;;;;5095411;28;20062;-64
2022/11/24 00:42:54;;;;;;;24.67;6.88;;;;;;;;;;5095043;28;20032;-64
2022/11/24 00:45:20;;;;;;;19.23;6.38;;;;;;;;;;5095312;28;20119;-64
2022/11/24 00:47:46;;;;;;;24.92;6.70;;;;;;;;;;5095310;28;20528;-64
2022/11/24 00:50:12;;;;;;;28.42;7.43;;;;;;;;;;5094835;28;20093;-64
2022/11/24 00:52:39;;;;;;;17.70;6.18;;;;;;;;;;5095374;28;20040;-64
2022/11/24 00:55:05;;;;;;;21.52;6.50;;;;;;;;;;5095184;28;20046;-64
2022/11/24 00:57:33;;;;;;;23.35;6.13;;;;;;;;;;5094766;28;20040;-64
2022/11/24 01:00:00;;;;;;;34.17;6.35;;;;;;;;;;5094814;28;20040;-64
2022/11/24 01:02:26;;;;;;;25.00;5.70;;;;;;;;;;5087547;28;20041;-64
2022/11/24 01:04:52;;;;;;;22.73;6.28;;;;;;;;;;5073145;28;20040;-64
2022/11/24 01:07:18;;;;;;;25.30;6.38;;;;;;;;;;5074651;28;20041;-64
2022/11/24 01:09:44;;;;;;;26.83;6.18;;;;;;;;;;5093043;28;20040;-64
2022/11/24 01:12:10;;;;;;;22.52;5.95;;;;;;;;;;5094256;28;20048;-64
2022/11/24 01:14:37;;;;;;;21.30;5.88;;;;;;;;;;5094789;28;20085;-64
2022/11/24 01:17:03;;;;;;;28.85;6.30;;;;;;;;;;5094485;28;20441;-64
2022/11/24 01:19:29;;;;;;;21.88;5.43;;;;;;;;;;5094302;28;20074;-64
2022/11/24 01:21:55;;;;;;;30.10;6.07;;;;;;;;;;5094166;28;20044;-64
2022/11/24 01:24:21;;;;;;;20.63;5.93;;;;;;;;;;5094732;28;20055;-64
2022/11/24 01:26:47;;;;;;;24.75;5.70;;;;;;;;;;5094114;28;20428;-64
2022/11/24 01:29:14;;;;;;;21.80;5.50;;;;;;;;;;5094323;28;20035;-64
2022/11/24 01:31:40;;;;;;;21.23;5.63;;;;;;;;;;5094380;28;20046;-64
2022/11/24 01:34:06;;;;;;;19.85;5.38;;;;;;;;;;5093972;28;20044;-64
2022/11/24 01:36:33;;;;;;;22.42;5.07;;;;;;;;;;5094472;28;20090;-64
2022/11/24 01:38:59;;;;;;;16.67;4.53;;;;;;;;;;5094362;28;20086;-64
2022/11/24 01:41:25;;;;;;;30.05;5.47;;;;;;;;;;5093771;28;20407;-64
2022/11/24 01:43:53;;;;;;;23.02;5.25;;;;;;;;;;5094344;28;20051;-64
2022/11/24 01:46:22;;;;;;;26.83;5.82;;;;;;;;;;5094250;28;20044;-64
2022/11/24 01:49:02;;;;;;;22.67;5.65;;;;;;;;;;5093887;28;20089;-64
2022/11/24 01:51:30;;;;;;;23.15;5.38;;;;;;;;;;5094223;28;20078;-64
2022/11/24 01:54:07;;;;;;;23.08;4.75;;;;;;;;;;5094211;28;20092;-64
2022/11/24 01:56:34;;;;;;;18.63;4.90;;;;;;;;;;5093682;28;20062;-64
2022/11/24 01:59:02;;;;;;;22.17;4.72;;;;;;;;;;5093749;28;20082;-64
2022/11/24 02:01:30;;;;;;;26.05;5.97;;;;;;;;;;5093484;28;20044;-64
2022/11/24 02:03:56;;;;;;;25.65;4.72;;;;;;;;;;5073420;28;20116;-64
2022/11/24 02:06:25;;;;;;;26.05;5.22;;;;;;;;;;5073561;28;20048;-64
2022/11/24 02:09:03;;;;;;;28.58;4.72;;;;;;;;;;5084082;28;20040;-64
2022/11/24 02:11:33;;;;;;;19.70;4.75;;;;;;;;;;5093293;28;20052;-64
2022/11/24 02:13:59;;;;;;;25.17;4.97;;;;;;;;;;5093775;28;20043;-64
2022/11/24 02:16:26;;;;;;;21.65;4.72;;;;;;;;;;5093152;28;20052;-64
2022/11/24 02:18:52;;;;;;;17.17;4.35;;;;;;;;;;5093208;28;20093;-64
2022/11/24 02:21:18;;;;;;;23.90;4.85;;;;;;;;;;5093357;28;20429;-64
2022/11/24 02:23:51;;;;;;;24.45;5.18;;;;;;;;;;5093505;28;20059;-64
2022/11/24 02:26:17;;;;;;;25.50;4.45;;;;;;;;;;5093043;28;20504;-64
2022/11/24 02:28:44;;;;;;;20.63;4.15;;;;;;;;;;5093127;28;20071;-64
2022/11/24 02:31:11;;;;;;;22.80;4.93;;;;;;;;;;5093300;28;20043;-64
2022/11/24 02:33:37;;;;;;;24.17;4.72;;;;;;;;;;5092088;28;20040;-64
2022/11/24 02:36:03;;;;;;;23.67;4.72;;;;;;;;;;5092877;28;20355;-64
2022/11/24 02:38:33;;;;;;;22.15;4.38;;;;;;;;;;5093154;28;20044;-62
2022/11/24 02:41:01;;;;;;;30.60;4.88;;;;;;;;;;5092570;28;20048;-62
2022/11/24 02:43:29;;;;;;;21.58;4.13;;;;;;;;;;5093030;28;20043;-61
2022/11/24 02:45:55;;;;;;;21.77;4.53;;;;;;;;;;5092646;28;20036;-61
2022/11/24 02:48:21;;;;;;;23.98;5.45;;;;;;;;;;5092564;28;20036;-61
2022/11/24 02:50:47;;;;;;;32.33;5.65;;;;;;;;;;5091401;28;20090;-61
2022/11/24 02:53:14;;;;;;;25.02;5.47;;;;;;;;;;5092902;28;20051;-61
2022/11/24 02:55:40;;;;;;;26.45;5.28;;;;;;;;;;5092443;28;20044;-61
2022/11/24 02:58:06;;;;;;;17.90;3.95;;;;;;;;;;5092616;28;20062;-61
2022/11/24 03:00:32;;;;;;;25.50;4.93;;;;;;;;;;5092593;28;20094;-61
2022/11/24 03:02:58;;;;;;;29.77;5.43;;;;;;;;;;5080332;28;20369;-61
2022/11/24 03:05:24;;;;;;;20.55;4.90;;;;;;;;;;5072408;28;20115;-61
2022/11/24 03:07:50;;;;;;;20.63;4.20;;;;;;;;;;5074664;28;20048;-61
2022/11/24 03:10:17;;;;;;;22.55;4.50;;;;;;;;;;5091998;28;20113;-61
2022/11/24 03:12:43;;;;;;;22.65;5.13;;;;;;;;;;5092261;28;20055;-61
2022/11/24 03:15:09;;;;;;;16.63;3.72;;;;;;;;;;5092361;28;20048;-61
2022/11/24 03:17:35;;;;;;;11.95;3.90;;;;;;;;;;5091701;28;20441;-61
2022/11/24 03:20:02;;;;;;;21.65;4.10;;;;;;;;;;5092281;28;20093;-61
2022/11/24 03:22:29;;;;;;;24.20;3.80;;;;;;;;;;5092450;28;20113;-61
2022/11/24 03:24:55;;;;;;;26.60;4.00;;;;;;;;;;5092007;28;20079;-61
2022/11/24 03:27:21;;;;;;;26.58;4.25;;;;;;;;;;5091942;28;20048;-61
2022/11/24 03:29:47;;;;;;;17.95;3.58;;;;;;;;;;5091973;28;20130;-61
2022/11/24 03:32:13;;;;;;;16.70;3.67;;;;;;;;;;5091788;28;20040;-61
2022/11/24 03:34:40;;;;;;;22.92;4.57;;;;;;;;;;5092182;28;20047;-61
2022/11/24 03:37:06;;;;;;;17.85;3.83;;;;;;;;;;5092264;28;20036;-61
2022/11/24 03:39:32;;;;;;;25.33;3.95;;;;;;;;;;5091801;28;20044;-61
2022/11/24 03:41:58;;;;;;;27.30;3.90;;;;;;;;;;5091973;28;20455;-61
2022/11/24 03:44:24;;;;;;;24.13;3.90;;;;;;;;;;5092103;28;20114;-61
2022/11/24 03:46:51;;;;;;;24.30;4.13;;;;;;;;;;5091386;28;20482;-61
2022/11/24 03:49:17;;;;;;;20.45;3.95;;;;;;;;;;5089168;28;20039;-61
2022/11/24 03:51:43;;;;;;;24.48;3.47;;;;;;;;;;5090574;28;20036;-61
2022/11/24 03:54:09;;;;;;;23.15;4.28;;;;;;;;;;5090336;28;20048;-61
2022/11/24 03:56:36;;;;;;;23.63;4.10;;;;;;;;;;5090440;28;20069;-61
2022/11/24 03:59:02;;;;;;;16.23;3.05;;;;;;;;;;5090483;28;20047;-61
2022/11/24 04:01:28;;;;;;;20.90;3.60;;;;;;;;;;5089966;28;20502;-61
2022/11/24 04:03:54;;;;;;;21.33;3.85;;;;;;;;;;5070700;28;20174;-61
2022/11/24 04:06:20;;;;;;;14.85;3.05;;;;;;;;;;5070288;28;20036;-61
2022/11/24 04:08:46;;;;;;;21.20;3.45;;;;;;;;;;5080414;28;20555;-61
2022/11/24 04:12:42;;;;;;;20.83;3.25;;;;;;;;;;5090627;28;20050;-61
2022/11/24 04:13:58;;;;;;;26.27;3.90;;;;;;;;;;5089119;28;20048;-61
2022/11/24 04:16:24;;;;;;;23.35;3.53;;;;;;;;;;5089780;28;20135;-61
2022/11/24 04:18:53;;;;;;;23.70;2.95;;;;;;;;;;5089121;28;20528;-62
2022/11/24 04:21:20;;;;;;;12.85;2.80;;;;;;;;;;5090256;28;20495;-62
2022/11/24 04:23:46;;;;;;;21.65;3.65;;;;;;;;;;5090048;28;20032;-62
2022/11/24 04:26:12;;;;;;;29.70;3.50;;;;;;;;;;5090187;28;20036;-62
2022/11/24 04:28:38;;;;;;;17.73;3.33;;;;;;;;;;5090345;28;20039;-62
2022/11/24 04:31:05;;;;;;;19.65;3.03;;;;;;;;;;5089467;28;20036;-62
2022/11/24 04:33:31;;;;;;;16.23;3.42;;;;;;;;;;5090282;28;20039;-62
2022/11/24 04:35:57;;;;;;;20.92;3.75;;;;;;;;;;5090161;28;20044;-62
2022/11/24 04:38:23;;;;;;;15.40;3.08;;;;;;;;;;5089727;28;20509;-62
2022/11/24 04:40:49;;;;;;;15.38;3.22;;;;;;;;;;5089892;28;20036;-62
2022/11/24 04:43:17;;;;;;;13.98;2.97;;;;;;;;;;5090038;28;20398;-62
2022/11/24 04:45:43;;;;;;;15.70;3.15;;;;;;;;;;5089520;28;20410;-62
2022/11/24 04:48:09;;;;;;;23.40;4.20;;;;;;;;;;5090042;28;20036;-62
2022/11/24 04:50:36;;;;;;;22.58;3.83;;;;;;;;;;5089851;28;20063;-62
2022/11/24 04:53:02;;;;;;;19.25;4.00;;;;;;;;;;5089312;28;20056;-62
2022/11/24 04:55:28;;;;;;;14.38;3.05;;;;;;;;;;5090039;28;20043;-62
2022/11/24 04:57:54;;;;;;;16.55;3.47;;;;;;;;;;5091101;28;20398;-62
2022/11/24 05:00:20;;;;;;;24.00;3.80;;;;;;;;;;5093139;28;20071;-62
2022/11/24 05:02:46;;;;;;;15.35;2.88;;;;;;;;;;5083392;28;20033;-62
2022/11/24 05:05:12;;;;;;;21.77;3.28;;;;;;;;;;5073137;28;20145;-62
2022/11/24 05:07:38;;;;;;;18.88;2.97;;;;;;;;;;5074250;28;20075;-62
2022/11/24 05:12:55;;;;;;;22.13;3.63;;;;;;;;;;5093595;28;20036;-62
2022/11/24 05:15:21;;;;;;;16.13;3.55;;;;;;;;;;5093012;28;20459;-62
2022/11/24 05:17:47;;;;;;;15.82;3.13;;;;;;;;;;5093113;28;20135;-62
2022/11/24 05:20:13;;;;;;;15.75;3.15;;;;;;;;;;5093224;28;20052;-62
2022/11/24 05:22:39;;;;;;;15.23;3.13;;;;;;;;;;5093132;28;20040;-62
2022/11/24 05:25:05;;;;;;;15.02;3.30;;;;;;;;;;5093274;28;20611;-62
2022/11/24 05:27:31;;;;;;;18.13;3.08;;;;;;;;;;5093476;28;20072;-62
2022/11/24 05:29:57;;;;;;;21.10;3.30;;;;;;;;;;5092506;28;20036;-62
2022/11/24 05:32:23;;;;;;;16.88;3.13;;;;;;;;;;5093183;28;20050;-62
2022/11/24 05:34:50;;;;;;;19.92;3.35;;;;;;;;;;5092405;28;20051;-62
2022/11/24 05:37:16;;;;;;;17.33;3.08;;;;;;;;;;5092484;28;20056;-62
2022/11/24 05:39:42;;;;;;;18.67;3.22;;;;;;;;;;5092752;28;20040;-62
2022/11/24 05:44:53;;;;;;;20.15;3.28;;;;;;;;;;5092347;28;20054;-62
2022/11/24 05:47:20;;;;;;;17.95;3.20;;;;;;;;;;5092761;28;20089;-62
2022/11/24 05:49:46;;;;;;;21.05;3.00;;;;;;;;;;5093005;28;20042;-62
2022/11/24 05:52:12;;;;;;;16.10;3.10;;;;;;;;;;5092530;28;20047;-62
2022/11/24 05:54:38;;;;;;;15.07;3.22;;;;;;;;;;5092320;28;20040;-62
2022/11/24 05:57:04;;;;;;;14.52;2.92;;;;;;;;;;5092186;28;20051;-62
2022/11/24 05:59:30;;;;;;;16.45;3.45;;;;;;;;;;5092080;28;20125;-62
2022/11/24 06:01:56;;;;;;;20.05;3.20;;;;;;;;;;5089066;28;20044;-62
2022/11/24 06:04:22;;;;;;;15.70;3.75;;;;;;;;;;5083270;28;20036;-62
2022/11/24 06:06:48;;;;;;;24.83;3.35;;;;;;;;;;5091899;28;20493;-62
2022/11/24 06:09:14;;;;;;;17.40;2.72;;;;;;;;;;5090529;28;20064;-62
2022/11/24 06:11:40;;;;;;;15.90;2.90;;;;;;;;;;5092239;28;20044;-62
2022/11/24 06:14:06;;;;;;;16.30;3.25;;;;;;;;;;5091707;28;20071;-62
2022/11/24 06:16:32;;;;;;;20.58;3.60;;;;;;;;;;5090932;28;20067;-62
2022/11/24 06:18:59;;;;;;;20.90;3.13;;;;;;;;;;5091867;28;20052;-62
2022/11/24 06:21:25;;;;;;;20.13;4.28;;;;;;;;;;5091658;28;20097;-62
2022/11/24 06:23:51;;;;;;;20.10;3.67;;;;;;;;;;5091598;28;20040;-62
2022/11/24 06:26:17;;;;;;;23.38;3.83;;;;;;;;;;5091503;28;20043;-62
2022/11/24 06:28:43;;;;;;;18.65;3.38;;;;;;;;;;5087901;28;20083;-62
2022/11/24 06:31:10;;;;;;;17.45;3.30;;;;;;;;;;5082427;28;20035;-65
2022/11/24 06:33:37;;;;;;;20.80;3.53;;;;;;;;;;5091132;28;20123;-64
2022/11/24 06:36:04;;;;;;;23.30;3.72;;;;;;;;;;5092209;28;20044;-63
2022/11/24 06:38:30;;;;;;;20.50;3.30;;;;;;;;;;5091722;28;20405;-64
2022/11/24 06:41:26;;;;;;;17.58;2.95;;;;;;;;;;5087661;28;20044;-63
2022/11/24 06:43:52;;;;;;;20.38;3.00;;;;;;;;;;5089828;28;20048;-63
2022/11/24 06:46:18;;;;;;;17.75;3.78;;;;;;;;;;5092075;28;20046;-63
2022/11/24 06:48:44;;;;;;;11.65;2.88;;;;;;;;;;5092226;28;20451;-64
2022/11/24 06:51:14;;;;;;;21.67;3.28;;;;;;;;;;5091622;28;20043;-63
2022/11/24 06:53:40;;;;;;;14.02;3.03;;;;;;;;;;5092107;28;20647;-63
2022/11/24 06:56:10;;;;;;;19.42;3.45;;;;;;;;;;5091611;28;20040;-63
2022/11/24 06:58:40;;;;;;;24.73;3.30;;;;;;;;;;5091390;28;20073;-63
2022/11/24 07:01:06;;;;;;;13.82;3.13;;;;;;;;;;5090488;28;20052;-64
2022/11/24 07:03:32;;;;;;;18.33;3.45;;;;;;;;;;5091816;28;20044;-65
2022/11/24 07:05:59;;;;;;;17.63;3.75;;;;;;;;;;5091025;28;20036;-65
2022/11/24 07:08:25;;;;;;;19.65;3.45;;;;;;;;;;5091704;28;20058;-65
2022/11/24 07:10:51;;;;;;;14.15;3.20;;;;;;;;;;5091286;28;20043;-66
2022/11/24 07:13:20;;;;;;;23.23;4.75;;;;;;;;;;5091650;28;20043;-65
2022/11/24 07:15:46;;;;;;;22.15;4.13;;;;;;;;;;5091180;28;20432;-65
2022/11/24 07:18:13;;;;;;;15.18;4.00;;;;;;;;;;5091680;28;20044;-68
2022/11/24 07:20:39;;;;;;;15.45;4.32;;;;;;;;;;5087528;28;20036;-65
2022/11/24 07:23:05;;;;;;;16.95;4.07;;;;;;;;;;5090899;28;20036;-65
2022/11/24 07:25:31;;;;;;;19.58;4.57;;;;;;;;;;5089951;28;20073;-66
2022/11/24 07:27:58;;;;;;;21.20;3.88;;;;;;;;;;5090657;28;20123;-65
2022/11/24 07:30:24;;;;;;;13.60;4.20;;;;;;;;;;5090670;28;20044;-63
2022/11/24 07:32:50;;;;;;;19.63;4.53;;;;;;;;;;5088829;28;20036;-65
2022/11/24 07:35:16;;;;;;;18.58;4.53;;;;;;;;;;5088211;28;20617;-64
2022/11/24 07:37:43;;;;;;;20.17;4.80;;;;;;;;;;5090550;28;20512;-65
2022/11/24 07:40:09;;;;;;;19.98;4.80;;;;;;;;;;5090778;28;20042;-65
2022/11/24 07:42:35;;;;;;;23.67;5.00;;;;;;;;;;5089132;28;20047;-65
2022/11/24 07:45:01;;;;;;;24.80;5.10;;;;;;;;;;5088933;28;20202;-64
2022/11/24 07:47:27;;;;;;;19.80;5.13;;;;;;;;;;5090795;28;20028;-65
2022/11/24 07:49:53;;;;;;;15.05;4.28;;;;;;;;;;5090465;28;20059;-64
2022/11/24 07:52:20;;;;;;;23.35;4.82;;;;;;;;;;5090069;28;20052;-65
2022/11/24 07:54:46;;;;;;;22.35;4.50;;;;;;;;;;5090562;28;20505;-65
2022/11/24 07:57:12;;;;;;;24.38;5.35;;;;;;;;;;5091039;28;20051;-64
2022/11/24 07:59:38;;;;;;;25.30;5.90;;;;;;;;;;5088758;28;20044;-64
2022/11/24 08:02:04;;;;;;;17.33;4.80;;;;;;;;;;5090233;28;20121;-64
2022/11/24 08:04:30;;;;;;;18.27;5.45;;;;;;;;;;5089694;28;20047;-67
2022/11/24 08:06:56;;;;;;;28.20;5.10;;;;;;;;;;5089336;28;20036;-67
2022/11/24 08:09:22;;;;;;;19.67;4.93;;;;;;;;;;5090868;28;20509;-66
2022/11/24 08:11:48;;;;;;;20.17;5.38;;;;;;;;;;5090248;28;20040;-66
2022/11/24 08:14:14;;;;;;;20.67;5.32;;;;;;;;;;5088384;28;20047;-65
2022/11/24 08:16:40;;;;;;;22.02;5.30;;;;;;;;;;5089654;28;20113;-65
2022/11/24 08:19:06;;;;;;;22.77;5.20;;;;;;;;;;5084364;28;20051;-64
2022/11/24 08:21:32;;;;;;;22.70;5.35;;;;;;;;;;5089971;28;20048;-64
2022/11/24 08:23:58;;;;;;;15.93;4.70;;;;;;;;;;5090433;28;20036;-66
2022/11/24 08:26:24;;;;;;;23.90;5.97;;;;;;;;;;5089050;28;20044;-68
2022/11/24 08:28:53;;;;;;;22.55;5.60;;;;;;;;;;5088194;28;20040;-66
2022/11/24 08:31:19;;;;;;;25.30;5.28;;;;;;;;;;5087282;28;20547;-65
2022/11/24 08:33:45;;;;;;;23.65;4.78;;;;;;;;;;5093059;28;20044;-65
2022/11/24 08:36:13;;;;;;;20.63;5.63;;;;;;;;;;5092167;28;20048;-65
2022/11/24 08:38:39;;;;;;;20.30;5.47;;;;;;;;;;5094487;28;20071;-66
2022/11/24 08:41:07;;;;;;;20.73;4.78;;;;;;;;;;5094104;28;20075;-66
2022/11/24 08:43:33;;;;;;;16.63;5.65;;;;;;;;;;5086629;28;20853;-65
2022/11/24 08:46:03;;;;;;;25.48;5.35;;;;;;;;;;5092546;28;20541;-67
2022/11/24 08:48:30;;;;;;;19.40;6.25;;;;;;;;;;5093371;28;20127;-65
2022/11/24 08:50:57;;;;;;;18.50;5.82;;;;;;;;;;5093419;28;20409;-67
2022/11/24 08:53:23;;;;;;;20.52;5.30;;;;;;;;;;5092837;28;20039;-67
2022/11/24 08:55:49;;;;;;;16.65;5.03;;;;;;;;;;5094109;28;20040;-67
2022/11/24 08:58:15;;;;;;;13.68;4.45;;;;;;;;;;5093770;28;20036;-67
2022/11/24 09:00:41;;;;;;;12.80;5.13;;;;;;;;;;5092064;28;20097;-65
2022/11/24 09:03:10;;;;;;;13.80;4.07;;;;;;;;;;5093371;28;20520;-65
2022/11/24 09:05:36;;;;;;;16.23;4.53;;;;;;;;;;5093705;28;20382;-65
2022/11/24 09:08:02;;;;;;;13.70;4.70;;;;;;;;;;5093742;28;20043;-66
2022/11/24 09:10:28;;;;;;;12.00;3.60;;;;;;;;;;5092435;28;20044;-65
2022/11/24 09:12:54;;;;;;;13.20;3.47;;;;;;;;;;5092191;28;20036;-65
2022/11/24 09:15:20;;;;;;;12.57;3.67;;;;;;;;;;5093314;28;20051;-66
2022/11/24 09:17:46;;;;;;;9.68;3.05;;;;;;;;;;5091903;28;20067;-66
2022/11/24 09:20:12;;;;;;;10.88;3.50;;;;;;;;;;5092206;28;21003;-66
2022/11/24 09:22:40;;;;;;;7.45;2.60;;;;;;;;;;5091259;28;20063;-66
2022/11/24 09:25:07;;;;;;;8.88;2.65;;;;;;;;;;5073418;28;20048;-65
2022/11/24 09:27:33;;;;;;;6.22;3.40;;;;;;;;;;5081808;28;20078;-64
2022/11/24 09:29:59;;;;;;;7.10;2.55;;;;;;;;;;5092455;28;20040;-64
2022/11/24 09:32:25;;;;;;;7.80;2.60;;;;;;;;;;5091748;28;20040;-64
2022/11/24 09:34:51;;;;;;;6.80;1.95;;;;;;;;;;5091534;28;20052;-64
2022/11/24 09:37:17;;;;;;;7.80;3.22;;;;;;;;;;5092871;28;20048;-63
2022/11/24 09:39:43;;;;;;;8.15;2.72;;;;;;;;;;5093077;28;20040;-64
2022/11/24 09:42:29;;;;;;;6.68;2.63;;;;;;;;;;5090875;28;20126;-64
2022/11/24 09:45:10;;;;;;;5.85;2.70;;;;;;;;;;5091016;28;20044;-64
2022/11/24 09:47:55;;;;;;;7.57;3.13;;;;;;;;;;5093204;28;20047;-63
2022/11/24 09:50:23;;;;;;;7.45;2.50;;;;;;;;;;5092470;28;20054;-62
2022/11/24 09:53:03;;;;;;;4.80;2.55;;;;;;;;;;5090423;28;20105;-63
2022/11/24 09:55:44;;;;;;;7.32;2.58;;;;;;;;;;5092488;28;20044;-63
2022/11/24 09:58:29;;;;;;;12.55;2.88;;;;;;;;;;5091316;28;20437;-63
2022/11/24 10:00:55;;;;;;;6.80;2.67;;;;;;;;;;5092077;28;20067;-64
2022/11/24 10:03:43;;;;;;;6.43;2.28;;;;;;;;;;5092398;28;20040;-64
2022/11/24 10:06:18;;;;;;;7.28;2.75;;;;;;;;;;5091357;28;20593;-63
2022/11/24 10:08:57;;;;;;;6.82;2.90;;;;;;;;;;5073894;28;20069;-63
2022/11/24 10:11:43;;;;;;;9.57;3.28;;;;;;;;;;5078238;28;20092;-63
2022/11/24 10:14:27;;;;;;;5.80;2.83;;;;;;;;;;5092600;28;20040;-63
2022/11/24 10:17:01;;;;;;;7.22;3.05;;;;;;;;;;5092040;28;20136;-65
2022/11/24 10:19:36;;;;;;;7.20;3.08;;;;;;;;;;5088205;28;20113;-65
2022/11/24 10:22:21;;;;;;;9.15;3.22;;;;;;;;;;5092079;28;20059;-64
2022/11/24 10:24:47;;;;;;;9.32;3.83;;;;;;;;;;5092218;28;20031;-64
2022/11/24 10:27:17;;;;;;;6.68;4.07;;;;;;;;;;5091681;28;20387;-64
2022/11/24 10:29:43;;;;;;;9.73;4.25;;;;;;;;;;5092217;28;20712;-64
2022/11/24 10:32:15;;;;;;;8.15;3.60;;;;;;;;;;5091946;28;20081;-64
2022/11/24 10:34:45;;;;;;;6.65;4.00;;;;;;;;;;5091308;28;20374;-64
2022/11/24 10:37:11;;;;;;;8.65;3.90;;;;;;;;;;5092012;28;20435;-64
2022/11/24 10:39:45;;;;;;;9.40;3.92;;;;;;;;;;5092158;28;20040;-63
2022/11/24 10:42:25;;;;;;;10.82;4.10;;;;;;;;;;5090978;28;20043;-66
2022/11/24 10:45:09;;;;;;;13.23;4.32;;;;;;;;;;5091841;28;20398;-66
2022/11/24 10:47:35;;;;;;;10.05;4.35;;;;;;;;;;5090705;28;20044;-64
2022/11/24 10:50:12;;;;;;;10.25;4.60;;;;;;;;;;5090892;28;20031;-64
2022/11/24 10:52:42;;;;;;;9.60;4.28;;;;;;;;;;5091623;28;20039;-64
2022/11/24 10:55:09;;;;;;;11.80;4.57;;;;;;;;;;5088946;28;20101;-64
2022/11/24 10:57:36;;;;;;;9.55;3.95;;;;;;;;;;5091263;28;20072;-64
2022/11/24 11:00:04;;;;;;;12.52;4.50;;;;;;;;;;5091155;28;20044;-63
2022/11/24 11:02:30;;;;;;;13.10;4.30;;;;;;;;;;5091615;28;20410;-63
2022/11/24 11:04:57;;;;;;;10.82;4.10;;;;;;;;;;5091198;28;20079;-63
2022/11/24 11:07:25;;;;;;;10.13;4.78;;;;;;;;;;5091380;28;20128;-64
2022/11/24 11:10:10;;;;;;;13.52;4.93;;;;;;;;;;5091738;28;20355;-64
2022/11/24 11:12:36;;;;;;;10.68;4.70;;;;;;;;;;5090112;28;20071;-63
2022/11/24 11:15:26;;;;;;;11.73;4.40;;;;;;;;;;5091341;28;20040;-63
2022/11/24 11:17:56;;;;;;;11.07;5.07;;;;;;;;;;5091156;28;20059;-63
2022/11/24 11:20:26;;;;;;;17.70;5.05;;;;;;;;;;5091167;28;20075;-65
2022/11/24 11:22:53;;;;;;;9.88;4.43;;;;;;;;;;5091230;28;20401;-65
2022/11/24 11:25:21;;;;;;;14.65;5.03;;;;;;;;;;5091054;28;20093;-66
2022/11/24 11:27:47;;;;;;;12.30;4.55;;;;;;;;;;5091553;28;20043;-65
2022/11/24 11:30:27;;;;;;;11.23;5.05;;;;;;;;;;5089608;28;20109;-64
2022/11/24 11:32:53;;;;;;;12.93;5.30;;;;;;;;;;5089844;28;20044;-64
2022/11/24 11:35:19;;;;;;;11.25;4.28;;;;;;;;;;5090470;28;20115;-64
2022/11/24 11:37:47;;;;;;;10.75;5.10;;;;;;;;;;5088454;28;20042;-64
2022/11/24 11:40:16;;;;;;;10.93;4.07;;;;;;;;;;5090010;28;20063;-64
2022/11/24 11:42:46;;;;;;;14.02;4.93;;;;;;;;;;5090813;28;20032;-64
2022/11/24 11:45:20;;;;;;;12.52;4.50;;;;;;;;;;5090738;28;20039;-64
2022/11/24 11:48:16;;;;;;;14.82;4.30;;;;;;;;;;5077173;28;20478;-64
2022/11/24 11:50:49;;;;;;;10.48;4.32;;;;;;;;;;5089947;28;20059;-64
2022/11/24 11:53:24;;;;;;;10.75;4.32;;;;;;;;;;5090752;28;20040;-64
2022/11/24 11:55:55;;;;;;;15.38;4.72;;;;;;;;;;5085425;28;20043;-64
2022/11/24 11:58:22;;;;;;;11.85;5.10;;;;;;;;;;5084910;28;20489;-64
2022/11/24 12:00:54;;;;;;;8.63;4.03;;;;;;;;;;5088837;28;20058;-64
2022/11/24 12:03:27;;;;;;;15.85;4.50;;;;;;;;;;5088419;28;20546;-64
2022/11/24 12:05:52;;;;;;;;;;;;;;;;;;5089002;28;20093;-64
2022/11/24 12:08:21;;;;;;;14.20;4.80;;;;;;;;;;5090910;28;19920;-62
2022/11/24 12:10:53;;;;;;;13.30;3.80;;;;;;;;;;5090023;28;20131;-62
2022/11/24 12:13:30;;;;;;;18.95;3.95;;;;;;;;;;5090766;28;20044;-63
2022/11/24 12:15:57;;;;;;;11.02;3.45;;;;;;;;;;5077613;28;20081;-63
2022/11/24 12:18:32;;;;;;;11.80;3.28;;;;;;;;;;5089865;28;20399;-62
2022/11/24 12:21:17;;;;;;;15.15;3.47;;;;;;;;;;5086195;28;20089;-62
2022/11/24 12:23:56;;;;;;;16.20;3.47;;;;;;;;;;5080132;28;20173;-62
2022/11/24 12:26:28;;;;;;;15.63;3.72;;;;;;;;;;5075961;28;20106;-62
2022/11/24 12:28:57;;;;;;;17.58;3.35;;;;;;;;;;5085229;28;20079;-63
2022/11/24 12:31:26;;;;;;;13.82;3.42;;;;;;;;;;5090217;28;20078;-64
2022/11/24 12:33:55;;;;;;;12.27;2.92;;;;;;;;;;5089639;28;20072;-63
2022/11/24 12:36:21;;;;;;;14.73;2.97;;;;;;;;;;5090136;28;20062;-63
2022/11/24 12:38:59;;;;;;;13.02;2.55;;;;;;;;;;5090534;28;20040;-65
2022/11/24 12:41:27;;;;;;;10.13;3.08;;;;;;;;;;5089876;28;20046;-65
2022/11/24 12:43:56;;;;;;;12.77;3.13;;;;;;;;;;5090327;28;20040;-63
2022/11/24 12:46:22;;;;;;;8.88;2.70;;;;;;;;;;5089641;28;20054;-64
2022/11/24 12:49:00;;;;;;;18.52;3.20;;;;;;;;;;5090064;28;20126;-64
2022/11/24 12:51:32;;;;;;;7.47;2.38;;;;;;;;;;5090297;28;20043;-63
2022/11/24 12:53:59;;;;;;;20.40;3.08;;;;;;;;;;5089819;28;20089;-63
2022/11/24 12:56:31;;;;;;;16.73;2.85;;;;;;;;;;5090341;28;20062;-63
2022/11/24 12:58:57;;;;;;;13.40;2.73;;;;;;;;;;5090281;28;20135;-64
2022/11/24 13:01:28;;;;;;;11.25;2.80;;;;;;;;;;5089381;28;20044;-66
2022/11/24 13:04:00;;;;;;;16.20;3.25;;;;;;;;;;5089879;28;20032;-65
2022/11/24 13:06:45;;;;;;;16.05;2.78;;;;;;;;;;5090163;28;20044;-64
2022/11/24 13:09:12;;;;;;;18.40;3.10;;;;;;;;;;5081978;28;20040;-64
2022/11/24 13:11:44;;;;;;;13.48;2.83;;;;;;;;;;5081946;28;20039;-63
2022/11/24 13:14:18;;;;;;;16.55;3.00;;;;;;;;;;5085474;28;20123;-63
2022/11/24 13:16:48;;;;;;;9.60;2.75;;;;;;;;;;5089100;28;20095;-63
2022/11/24 13:19:16;;;;;;;15.20;3.22;;;;;;;;;;5080738;28;20044;-63
2022/11/24 13:21:44;;;;;;;14.60;3.20;;;;;;;;;;5066057;28;20119;-64
2022/11/24 13:24:16;;;;;;;17.45;3.72;;;;;;;;;;5086441;28;20743;-65
2022/11/24 13:26:42;;;;;;;16.73;3.67;;;;;;;;;;5084233;28;20117;-64
2022/11/24 13:29:27;;;;;;;17.85;3.42;;;;;;;;;;5089343;28;20060;-64
2022/11/24 13:32:21;;;;;;;13.98;3.45;;;;;;;;;;5092355;28;20673;-64
2022/11/24 13:34:54;;;;;;;14.35;3.90;;;;;;;;;;5092098;28;20052;-66
2022/11/24 13:37:40;;;;;;;14.75;3.88;;;;;;;;;;5093285;28;20100;-65
2022/11/24 13:40:12;;;;;;;11.68;3.53;;;;;;;;;;5091468;28;20052;-66
2022/11/24 13:42:56;;;;;;;13.40;3.70;;;;;;;;;;5093080;28;20040;-66
2022/11/24 13:45:52;;;;;;;15.27;3.78;;;;;;;;;;5092787;28;20048;-66
2022/11/24 13:48:18;;;;;;;17.85;4.57;;;;;;;;;;5076467;28;20039;-64
2022/11/24 13:50:51;;;;;;;14.13;3.90;;;;;;;;;;5093079;28;20040;-64
2022/11/24 13:53:36;;;;;;;11.68;3.72;;;;;;;;;;5092597;28;20049;-63
2022/11/24 13:56:05;;;;;;;14.15;3.63;;;;;;;;;;5092812;28;20040;-65
2022/11/24 13:58:36;;;;;;;15.57;3.55;;;;;;;;;;5093218;28;20146;-66
2022/11/24 14:01:06;;;;;;;12.82;4.05;;;;;;;;;;5092227;28;20128;-65
2022/11/24 14:03:35;;;;;;;15.60;3.72;;;;;;;;;;5081253;28;20043;-66
2022/11/24 14:06:01;;;;;;;12.90;3.53;;;;;;;;;;5092604;28;20071;-64
2022/11/24 14:08:36;;;;;;;16.08;3.70;;;;;;;;;;5092121;28;20040;-64
2022/11/24 14:11:03;;;;;;;16.20;4.03;;;;;;;;;;5081398;28;20156;-64
2022/11/24 14:13:30;;;;;;;16.77;3.83;;;;;;;;;;5092130;28;20084;-64
2022/11/24 14:16:00;;;;;;;13.23;3.10;;;;;;;;;;5091406;28;20051;-64
2022/11/24 14:18:28;;;;;;;13.32;3.55;;;;;;;;;;5092516;28;20498;-64
2022/11/24 14:20:55;;;;;;;12.63;3.35;;;;;;;;;;5092023;28;20116;-64
2022/11/24 14:23:21;;;;;;;14.00;3.35;;;;;;;;;;5091993;28;20051;-64
2022/11/24 14:25:49;;;;;;;18.80;3.53;;;;;;;;;;5091838;28;20071;-64
2022/11/24 14:28:19;;;;;;;13.38;3.88;;;;;;;;;;5092070;28;20393;-64
2022/11/24 14:30:45;;;;;;;17.10;4.00;;;;;;;;;;5086165;28;20036;-64
2022/11/24 14:33:12;;;;;;;22.77;3.60;;;;;;;;;;5082523;28;20047;-65
2022/11/24 14:35:49;;;;;;;17.25;3.58;;;;;;;;;;5079414;28;20054;-64
2022/11/24 14:38:16;;;;;;;14.40;3.50;;;;;;;;;;5080498;28;20049;-65
2022/11/24 14:40:43;;;;;;;22.75;3.80;;;;;;;;;;5081160;28;20040;-63
2022/11/24 14:43:15;;;;;;;18.90;3.40;;;;;;;;;;5092485;28;20489;-64
2022/11/24 14:45:52;;;;;;;11.25;2.88;;;;;;;;;;5091916;28;20032;-64